sensor_id;sensor_type;location;lat;lon;timestamp;P1;durP1;ratioP1;P2;durP2;ratioP2
51485;SDS011;37565;51.352;6.412;2023-03-23T00:01:24;64.97;;;42.90;;
51485;SDS011;37565;51.352;6.412;2023-03-23T00:03:52;67.43;;;42.58;;
51485;SDS011;37565;51.352;6.412;2023-03-23T18:36:26;4.15;;;2.00;;
51485;SDS011;37565;51.352;6.412;2023-03-23T18:38:55;8.45;;;4.55;;
51485;SDS011;37565;51.352;6.412;2023-03-23T18:41:24;8.02;;;5.57;;
51485;SDS011;37565;51.352;6.412;2023-03-23T18:43:52;12.10;;;7.97;;
51485;SDS011;37565;51.352;6.412;2023-03-23T18:46:23;15.02;;;10.50;;
51485;SDS011;37565;51.352;6.412;2023-03-23T18:48:51;18.33;;;11.93;;
51485;SDS011;37565;51.352;6.412;2023-03-23T18:51:19;24.52;;;15.25;;
51485;SDS011;37565;51.352;6.412;2023-03-23T18:53:48;26.98;;;16.40;;
51485;SDS011;37565;51.352;6.412;2023-03-23T18:56:16;27.00;;;16.77;;
51485;SDS011;37565;51.352;6.412;2023-03-23T18:58:44;22.27;;;15.85;;
51485;SDS011;37565;51.352;6.412;2023-03-23T19:01:13;31.35;;;18.83;;
51485;SDS011;37565;51.352;6.412;2023-03-23T19:03:43;33.78;;;20.25;;
51485;SDS011;37565;51.352;6.412;2023-03-23T19:06:13;38.90;;;23.90;;
51485;SDS011;37565;51.352;6.412;2023-03-23T19:08:44;32.05;;;21.58;;
51485;SDS011;37565;51.352;6.412;2023-03-23T19:11:14;38.28;;;23.90;;
51485;SDS011;37565;51.352;6.412;2023-03-23T19:13:42;38.85;;;25.00;;
51485;SDS011;37565;51.352;6.412;2023-03-23T19:16:27;42.03;;;26.30;;
51485;SDS011;37565;51.352;6.412;2023-03-23T19:18:56;39.13;;;26.50;;
51485;SDS011;37565;51.352;6.412;2023-03-23T19:21:24;51.75;;;31.00;;
51485;SDS011;37565;51.352;6.412;2023-03-23T19:23:56;44.17;;;27.75;;
51485;SDS011;37565;51.352;6.412;2023-03-23T19:26:27;57.05;;;34.28;;
51485;SDS011;37565;51.352;6.412;2023-03-23T19:29:00;54.20;;;33.20;;
51485;SDS011;37565;51.352;6.412;2023-03-23T19:31:48;52.22;;;33.80;;
51485;SDS011;37565;51.352;6.412;2023-03-23T19:34:16;57.83;;;34.00;;
51485;SDS011;37565;51.352;6.412;2023-03-23T19:36:44;59.40;;;34.85;;
51485;SDS011;37565;51.352;6.412;2023-03-23T19:39:21;56.20;;;35.55;;
51485;SDS011;37565;51.352;6.412;2023-03-23T19:41:51;60.95;;;34.55;;
51485;SDS011;37565;51.352;6.412;2023-03-23T19:44:21;56.25;;;34.90;;
51485;SDS011;37565;51.352;6.412;2023-03-23T19:46:50;59.78;;;37.25;;
51485;SDS011;37565;51.352;6.412;2023-03-23T19:49:20;59.03;;;37.55;;
51485;SDS011;37565;51.352;6.412;2023-03-23T19:51:48;56.80;;;35.83;;
51485;SDS011;37565;51.352;6.412;2023-03-23T19:54:34;64.55;;;40.25;;
51485;SDS011;37565;51.352;6.412;2023-03-23T19:57:04;61.83;;;38.60;;
51485;SDS011;37565;51.352;6.412;2023-03-23T19:59:32;65.15;;;39.47;;
51485;SDS011;37565;51.352;6.412;2023-03-23T20:02:00;75.75;;;44.28;;
51485;SDS011;37565;51.352;6.412;2023-03-23T20:04:28;67.82;;;42.10;;
51485;SDS011;37565;51.352;6.412;2023-03-23T20:06:56;72.70;;;43.85;;
51485;SDS011;37565;51.352;6.412;2023-03-23T20:09:25;67.13;;;43.28;;
51485;SDS011;37565;51.352;6.412;2023-03-23T20:11:53;73.72;;;45.20;;
51485;SDS011;37565;51.352;6.412;2023-03-23T20:14:23;67.32;;;44.28;;
51485;SDS011;37565;51.352;6.412;2023-03-23T20:16:51;76.40;;;44.88;;
51485;SDS011;37565;51.352;6.412;2023-03-23T20:19:20;75.47;;;46.15;;
51485;SDS011;37565;51.352;6.412;2023-03-23T20:21:48;77.75;;;47.50;;
51485;SDS011;37565;51.352;6.412;2023-03-23T20:24:17;77.53;;;48.30;;
51485;SDS011;37565;51.352;6.412;2023-03-23T20:26:45;79.65;;;49.20;;
51485;SDS011;37565;51.352;6.412;2023-03-23T20:29:13;86.15;;;50.45;;
51485;SDS011;37565;51.352;6.412;2023-03-23T20:31:43;83.10;;;50.50;;
51485;SDS011;37565;51.352;6.412;2023-03-23T20:34:12;81.88;;;49.55;;
51485;SDS011;37565;51.352;6.412;2023-03-23T20:36:42;88.78;;;54.67;;
51485;SDS011;37565;51.352;6.412;2023-03-23T20:39:13;91.40;;;55.90;;
51485;SDS011;37565;51.352;6.412;2023-03-23T20:41:44;89.65;;;56.42;;
51485;SDS011;37565;51.352;6.412;2023-03-23T20:44:12;84.97;;;53.03;;
51485;SDS011;37565;51.352;6.412;2023-03-23T20:46:42;88.38;;;54.28;;
51485;SDS011;37565;51.352;6.412;2023-03-23T20:49:11;84.65;;;53.05;;
51485;SDS011;37565;51.352;6.412;2023-03-23T20:51:41;80.20;;;50.88;;
51485;SDS011;37565;51.352;6.412;2023-03-23T20:54:10;80.45;;;49.03;;
51485;SDS011;37565;51.352;6.412;2023-03-23T20:56:39;80.82;;;49.95;;
51485;SDS011;37565;51.352;6.412;2023-03-23T20:59:07;81.20;;;51.15;;
51485;SDS011;37565;51.352;6.412;2023-03-23T21:01:36;82.05;;;51.05;;
51485;SDS011;37565;51.352;6.412;2023-03-23T21:04:07;79.38;;;48.58;;
51485;SDS011;37565;51.352;6.412;2023-03-23T21:06:41;81.55;;;51.15;;
51485;SDS011;37565;51.352;6.412;2023-03-23T21:09:10;79.18;;;49.17;;
51485;SDS011;37565;51.352;6.412;2023-03-23T21:11:39;84.20;;;50.97;;
51485;SDS011;37565;51.352;6.412;2023-03-23T21:14:08;80.00;;;50.80;;
51485;SDS011;37565;51.352;6.412;2023-03-23T21:16:37;82.32;;;52.38;;
51485;SDS011;37565;51.352;6.412;2023-03-23T21:19:06;81.75;;;52.03;;
51485;SDS011;37565;51.352;6.412;2023-03-23T21:21:34;87.38;;;54.78;;
51485;SDS011;37565;51.352;6.412;2023-03-23T21:24:22;91.07;;;55.28;;
51485;SDS011;37565;51.352;6.412;2023-03-23T21:26:53;85.15;;;53.10;;
51485;SDS011;37565;51.352;6.412;2023-03-23T21:29:22;86.78;;;52.65;;
51485;SDS011;37565;51.352;6.412;2023-03-23T21:31:52;91.93;;;56.60;;
51485;SDS011;37565;51.352;6.412;2023-03-23T21:34:35;86.70;;;56.75;;
51485;SDS011;37565;51.352;6.412;2023-03-23T21:37:03;85.45;;;54.78;;
51485;SDS011;37565;51.352;6.412;2023-03-23T21:39:31;87.97;;;56.53;;
51485;SDS011;37565;51.352;6.412;2023-03-23T21:42:00;94.85;;;58.53;;
51485;SDS011;37565;51.352;6.412;2023-03-23T21:44:31;91.60;;;57.80;;
51485;SDS011;37565;51.352;6.412;2023-03-23T21:47:01;95.65;;;61.20;;
51485;SDS011;37565;51.352;6.412;2023-03-23T21:49:29;92.00;;;58.10;;
51485;SDS011;37565;51.352;6.412;2023-03-23T21:51:58;98.88;;;62.47;;
51485;SDS011;37565;51.352;6.412;2023-03-23T21:54:27;97.45;;;61.70;;
51485;SDS011;37565;51.352;6.412;2023-03-23T21:56:55;108.30;;;65.60;;
51485;SDS011;37565;51.352;6.412;2023-03-23T21:59:24;99.95;;;63.70;;
51485;SDS011;37565;51.352;6.412;2023-03-23T22:01:52;95.10;;;60.42;;
51485;SDS011;37565;51.352;6.412;2023-03-23T22:04:23;101.35;;;63.90;;
51485;SDS011;37565;51.352;6.412;2023-03-23T22:06:53;100.93;;;62.90;;
51485;SDS011;37565;51.352;6.412;2023-03-23T22:09:23;95.20;;;61.38;;
51485;SDS011;37565;51.352;6.412;2023-03-23T22:11:51;100.07;;;64.10;;
51485;SDS011;37565;51.352;6.412;2023-03-23T22:14:19;105.50;;;62.88;;
51485;SDS011;37565;51.352;6.412;2023-03-23T22:16:47;94.38;;;62.40;;
51485;SDS011;37565;51.352;6.412;2023-03-23T22:19:15;95.82;;;61.38;;
51485;SDS011;37565;51.352;6.412;2023-03-23T22:21:44;100.72;;;64.32;;
51485;SDS011;37565;51.352;6.412;2023-03-23T22:24:12;102.82;;;66.38;;
51485;SDS011;37565;51.352;6.412;2023-03-23T22:26:42;103.40;;;64.63;;
51485;SDS011;37565;51.352;6.412;2023-03-23T22:29:11;98.55;;;63.67;;
51485;SDS011;37565;51.352;6.412;2023-03-23T22:31:42;97.53;;;62.60;;
51485;SDS011;37565;51.352;6.412;2023-03-23T22:34:11;104.80;;;65.10;;
51485;SDS011;37565;51.352;6.412;2023-03-23T22:36:39;105.85;;;67.18;;
51485;SDS011;37565;51.352;6.412;2023-03-23T22:39:08;105.32;;;68.07;;
51485;SDS011;37565;51.352;6.412;2023-03-23T22:41:36;98.45;;;62.85;;
51485;SDS011;37565;51.352;6.412;2023-03-23T22:44:09;107.38;;;70.10;;
51485;SDS011;37565;51.352;6.412;2023-03-23T22:46:39;103.05;;;67.68;;
51485;SDS011;37565;51.352;6.412;2023-03-23T22:49:07;109.30;;;69.82;;
51485;SDS011;37565;51.352;6.412;2023-03-23T22:51:36;97.45;;;64.47;;
